Time,TemperatureF,DewpointF,PressureIn,WindDirection,WindDirectionDegrees,WindSpeedMPH,WindSpeedGustMPH,Humidity,HourlyPrecipIn,Conditions,Clouds,dailyrainin,SolarRadiationWatts/m^2,SoftwareType,DateUTC
2013-02-07 00:06:00,72.8,64.0,30.07,SE,130,1.0,-999.0,74,-99.99,,,0.00,0,weatherlink.com 1.10,2013-02-07 05:06:00,
2013-02-07 00:21:00,72.7,64.0,30.06,ESE,115,0.0,-999.0,74,-99.99,,,0.00,0,weatherlink.com 1.10,2013-02-07 05:21:00,
2013-02-07 00:36:00,72.4,64.0,30.06,East,80,0.0,-999.0,74,-99.99,,,0.00,0,weatherlink.com 1.10,2013-02-07 05:36:00,
2013-02-07 00:51:00,72.4,64.0,30.06,East,88,0.0,-999.0,74,-99.99,,,0.00,0,weatherlink.com 1.10,2013-02-07 05:51:00,
2013-02-07 01:06:00,72.3,64.0,30.05,East,90,0.0,-999.0,74,-99.99,,,0.00,0,weatherlink.com 1.10,2013-02-07 06:06:00,
2013-02-07 01:21:00,72.4,64.0,30.06,ESE,117,0.0,-999.0,74,-99.99,,,0.00,0,weatherlink.com 1.10,2013-02-07 06:21:00,
2013-02-07 01:36:00,72.3,64.0,30.06,ESE,113,0.0,-999.0,74,-99.99,,,0.00,0,weatherlink.com 1.10,2013-02-07 06:36:00,
2013-02-07 01:51:00,72.3,64.0,30.05,ESE,113,0.0,-999.0,75,-99.99,,,0.00,0,weatherlink.com 1.10,2013-02-07 06:51:00,
2013-02-07 02:06:00,72.3,64.0,30.05,ESE,123,1.0,-999.0,75,-99.99,,,0.00,0,weatherlink.com 1.10,2013-02-07 07:06:00,
2013-02-07 02:21:00,72.2,64.0,30.05,East,82,0.0,-999.0,75,-99.99,,,0.00,0,weatherlink.com 1.10,2013-02-07 07:21:00,
2013-02-07 02:36:00,72.1,64.0,30.04,ESE,116,0.0,-999.0,75,-99.99,,,0.00,0,weatherlink.com 1.10,2013-02-07 07:36:00,
2013-02-07 02:51:00,72.2,64.0,30.04,ESE,116,0.0,-999.0,75,-99.99,,,0.00,0,weatherlink.com 1.10,2013-02-07 07:51:00,
2013-02-07 03:21:00,71.9,64.0,30.03,ESE,122,2.0,-999.0,75,-99.99,,,0.00,0,weatherlink.com 1.10,2013-02-07 08:21:00,
2013-02-07 03:36:00,71.7,63.0,30.04,SE,128,0.0,-999.0,75,-99.99,,,0.00,0,weatherlink.com 1.10,2013-02-07 08:36:00,
2013-02-07 03:51:00,71.7,64.0,30.03,ESE,104,0.0,-999.0,76,-99.99,,,0.00,0,weatherlink.com 1.10,2013-02-07 08:51:00,
2013-02-07 04:06:00,71.5,63.0,30.03,East,95,0.0,-999.0,75,-99.99,,,0.00,0,weatherlink.com 1.10,2013-02-07 09:06:00,
2013-02-07 04:21:00,71.4,63.0,30.03,East,94,0.0,-999.0,75,-99.99,,,0.00,0,weatherlink.com 1.10,2013-02-07 09:21:00,
2013-02-07 04:36:00,71.4,64.0,30.03,East,94,0.0,-999.0,76,-99.99,,,0.00,0,weatherlink.com 1.10,2013-02-07 09:36:00,
2013-02-07 04:51:00,71.4,64.0,30.03,East,96,4.0,-999.0,76,-99.99,,,0.00,0,weatherlink.com 1.10,2013-02-07 09:51:00,
2013-02-07 05:07:00,71.1,63.0,30.03,ESE,115,1.0,-999.0,76,-99.99,,,0.00,0,weatherlink.com 1.10,2013-02-07 10:07:00,
2013-02-07 05:21:00,71.0,63.0,30.03,SSE,147,0.0,-999.0,77,-99.99,,,0.00,0,weatherlink.com 1.10,2013-02-07 10:21:00,
2013-02-07 05:37:00,70.8,63.0,30.03,ESE,119,0.0,-999.0,77,-99.99,,,0.00,0,weatherlink.com 1.10,2013-02-07 10:37:00,
2013-02-07 05:52:00,70.9,63.0,30.03,ESE,107,0.0,-999.0,77,-99.99,,,0.00,0,weatherlink.com 1.10,2013-02-07 10:52:00,
2013-02-07 06:06:00,70.9,64.0,30.02,SE,124,0.0,-999.0,78,-99.99,,,0.00,0,weatherlink.com 1.10,2013-02-07 11:06:00,
2013-02-07 06:21:00,70.8,64.0,30.03,ESE,115,0.0,-999.0,78,-99.99,,,0.00,0,weatherlink.com 1.10,2013-02-07 11:21:00,
2013-02-07 06:36:00,70.9,64.0,30.03,ESE,109,2.0,-999.0,79,-99.99,,,0.00,0,weatherlink.com 1.10,2013-02-07 11:36:00,
2013-02-07 06:51:00,70.8,64.0,30.04,ESE,110,0.0,-999.0,78,-99.99,,,0.00,0,weatherlink.com 1.10,2013-02-07 11:51:00,
2013-02-07 07:06:00,71.0,64.0,30.04,SE,132,0.0,-999.0,79,-99.99,,,0.00,7,weatherlink.com 1.10,2013-02-07 12:06:00,
2013-02-07 07:21:00,71.0,65.0,30.05,SE,132,0.0,-999.0,80,-99.99,,,0.00,25,weatherlink.com 1.10,2013-02-07 12:21:00,
2013-02-07 07:37:00,71.1,65.0,30.05,SE,131,0.0,-999.0,80,-99.99,,,0.00,37,weatherlink.com 1.10,2013-02-07 12:37:00,
2013-02-07 07:51:00,71.3,65.0,30.05,ESE,114,1.0,-999.0,80,-99.99,,,0.00,32,weatherlink.com 1.10,2013-02-07 12:51:00,
2013-02-07 08:06:00,72.1,65.0,30.06,ENE,73,1.0,-999.0,79,-99.99,,,0.00,160,weatherlink.com 1.10,2013-02-07 13:06:00,
2013-02-07 08:21:00,72.7,65.0,30.06,ESE,116,2.0,-999.0,76,-99.99,,,0.00,47,weatherlink.com 1.10,2013-02-07 13:21:00,
2013-02-07 08:37:00,73.8,66.0,30.07,ENE,71,6.0,-999.0,76,-99.99,,,0.00,278,weatherlink.com 1.10,2013-02-07 13:37:00,
2013-02-07 08:52:00,74.5,65.0,30.07,ESE,117,0.0,-999.0,73,-99.99,,,0.00,98,weatherlink.com 1.10,2013-02-07 13:52:00,
2013-02-07 09:07:00,75.1,66.0,30.06,SE,126,4.0,-999.0,72,-99.99,,,0.00,304,weatherlink.com 1.10,2013-02-07 14:07:00,
2013-02-07 09:22:00,75.9,65.0,30.07,SE,133,1.0,-999.0,70,-99.99,,,0.00,417,weatherlink.com 1.10,2013-02-07 14:22:00,
2013-02-07 09:37:00,76.1,66.0,30.07,SE,132,0.0,-999.0,70,-99.99,,,0.00,457,weatherlink.com 1.10,2013-02-07 14:37:00,
2013-02-07 09:52:00,76.8,66.0,30.07,ESE,117,0.0,-999.0,69,-99.99,,,0.00,503,weatherlink.com 1.10,2013-02-07 14:52:00,
2013-02-07 10:07:00,77.2,66.0,30.08,ESE,107,5.0,-999.0,68,-99.99,,,0.00,570,weatherlink.com 1.10,2013-02-07 15:07:00,
2013-02-07 10:22:00,77.4,66.0,30.07,East,81,1.0,-999.0,68,-99.99,,,0.00,608,weatherlink.com 1.10,2013-02-07 15:22:00,
2013-02-07 10:37:00,77.3,66.0,30.07,East,86,0.0,-999.0,69,-99.99,,,0.00,650,weatherlink.com 1.10,2013-02-07 15:37:00,
2013-02-07 10:52:00,78.0,66.0,30.07,SE,127,0.0,-999.0,67,-99.99,,,0.00,686,weatherlink.com 1.10,2013-02-07 15:52:00,
2013-02-07 11:07:00,78.0,65.0,30.06,East,86,3.0,-999.0,65,-99.99,,,0.00,120,weatherlink.com 1.10,2013-02-07 16:07:00,
2013-02-07 11:22:00,79.7,66.0,30.06,SE,126,4.0,-999.0,64,-99.99,,,0.00,735,weatherlink.com 1.10,2013-02-07 16:22:00,
2013-02-07 11:37:00,80.2,67.0,30.05,SSE,148,0.0,-999.0,64,-99.99,,,0.00,714,weatherlink.com 1.10,2013-02-07 16:37:00,
2013-02-07 11:52:00,79.0,66.0,30.04,SE,128,4.0,-999.0,64,-99.99,,,0.00,726,weatherlink.com 1.10,2013-02-07 16:52:00,
2013-02-07 12:07:00,79.1,66.0,30.03,ESE,123,2.0,-999.0,65,-99.99,,,0.00,740,weatherlink.com 1.10,2013-02-07 17:07:00,
2013-02-07 12:22:00,78.8,67.0,30.02,East,97,0.0,-999.0,67,-99.99,,,0.00,791,weatherlink.com 1.10,2013-02-07 17:22:00,
2013-02-07 12:37:00,79.3,67.0,30.01,SE,140,0.0,-999.0,66,-99.99,,,0.00,793,weatherlink.com 1.10,2013-02-07 17:37:00,
2013-02-07 12:52:00,78.5,66.0,30.00,ESE,115,0.0,-999.0,65,-99.99,,,0.00,789,weatherlink.com 1.10,2013-02-07 17:52:00,
2013-02-07 13:07:00,79.3,67.0,29.99,SE,132,0.0,-999.0,66,-99.99,,,0.00,779,weatherlink.com 1.10,2013-02-07 18:07:00,
2013-02-07 13:22:00,78.3,66.0,29.98,ESE,113,7.0,-999.0,65,-99.99,,,0.00,724,weatherlink.com 1.10,2013-02-07 18:22:00,
2013-02-07 13:39:00,81.3,67.0,29.98,SE,124,1.0,-999.0,63,-99.99,,,0.00,735,weatherlink.com 1.10,2013-02-07 18:39:00,
2013-02-07 14:07:00,81.6,67.0,29.97,East,80,0.0,-999.0,61,-99.99,,,0.00,654,weatherlink.com 1.10,2013-02-07 19:07:00,
2013-02-07 14:22:00,80.1,67.0,29.97,East,89,0.0,-999.0,64,-99.99,,,0.00,652,weatherlink.com 1.10,2013-02-07 19:22:00,
2013-02-07 14:37:00,79.5,67.0,29.96,East,94,2.0,-999.0,65,-99.99,,,0.00,613,weatherlink.com 1.10,2013-02-07 19:37:00,
2013-02-07 14:52:00,80.7,67.0,29.96,East,84,1.0,-999.0,64,-99.99,,,0.00,192,weatherlink.com 1.10,2013-02-07 19:52:00,
2013-02-07 15:08:00,80.3,67.0,29.96,East,88,0.0,-999.0,65,-99.99,,,0.00,438,weatherlink.com 1.10,2013-02-07 20:08:00,
2013-02-07 15:23:00,79.2,66.0,29.95,ESE,121,2.0,-999.0,65,-99.99,,,0.00,98,weatherlink.com 1.10,2013-02-07 20:23:00,
2013-02-07 15:38:00,79.8,67.0,29.95,ESE,115,4.0,-999.0,66,-99.99,,,0.00,448,weatherlink.com 1.10,2013-02-07 20:38:00,
2013-02-07 15:53:00,78.7,67.0,29.95,ESE,107,1.0,-999.0,67,-99.99,,,0.00,404,weatherlink.com 1.10,2013-02-07 20:53:00,
2013-02-07 16:08:00,79.8,67.0,29.95,ESE,113,2.0,-999.0,66,-99.99,,,0.00,355,weatherlink.com 1.10,2013-02-07 21:08:00,
2013-02-07 16:23:00,79.0,67.0,29.95,ESE,115,1.0,-999.0,67,-99.99,,,0.00,308,weatherlink.com 1.10,2013-02-07 21:23:00,
2013-02-07 16:38:00,78.9,67.0,29.95,East,92,2.0,-999.0,66,-99.99,,,0.00,221,weatherlink.com 1.10,2013-02-07 21:38:00,
2013-02-07 16:53:00,78.0,67.0,29.95,ESE,115,0.0,-999.0,69,-99.99,,,0.00,186,weatherlink.com 1.10,2013-02-07 21:53:00,
2013-02-07 17:08:00,77.9,66.0,29.96,ESE,115,0.0,-999.0,67,-99.99,,,0.00,35,weatherlink.com 1.10,2013-02-07 22:08:00,
2013-02-07 17:23:00,77.1,66.0,29.95,ESE,121,0.0,-999.0,69,-99.99,,,0.00,67,weatherlink.com 1.10,2013-02-07 22:23:00,
2013-02-07 17:37:00,76.1,66.0,29.95,East,99,0.0,-999.0,71,-99.99,,,0.00,23,weatherlink.com 1.10,2013-02-07 22:37:00,
2013-02-07 17:53:00,75.2,66.0,29.96,ESE,105,0.0,-999.0,72,-99.99,,,0.00,14,weatherlink.com 1.10,2013-02-07 22:53:00,
2013-02-07 18:08:00,74.4,65.0,29.96,ESE,105,0.0,-999.0,73,-99.99,,,0.00,5,weatherlink.com 1.10,2013-02-07 23:08:00,
2013-02-07 18:23:00,73.7,65.0,29.96,ESE,105,0.0,-999.0,74,-99.99,,,0.00,0,weatherlink.com 1.10,2013-02-07 23:23:00,
2013-02-07 18:38:00,73.3,65.0,29.97,ESE,105,0.0,-999.0,74,-99.99,,,0.00,0,weatherlink.com 1.10,2013-02-07 23:38:00,
2013-02-07 18:54:00,72.7,64.0,29.96,ESE,105,0.0,-999.0,75,-99.99,,,0.00,0,weatherlink.com 1.10,2013-02-07 23:54:00,
2013-02-07 19:08:00,72.2,64.0,29.97,ESE,105,0.0,-999.0,76,-99.99,,,0.00,0,weatherlink.com 1.10,2013-02-08 00:08:00,
2013-02-07 19:23:00,72.1,64.0,29.98,ESE,105,0.0,-999.0,76,-99.99,,,0.00,0,weatherlink.com 1.10,2013-02-08 00:23:00,
2013-02-07 19:38:00,71.9,65.0,29.98,ESE,105,0.0,-999.0,78,-99.99,,,0.00,0,weatherlink.com 1.10,2013-02-08 00:38:00,
2013-02-07 19:53:00,71.4,65.0,29.99,ESE,105,0.0,-999.0,80,-99.99,,,0.00,0,weatherlink.com 1.10,2013-02-08 00:53:00,
2013-02-07 20:08:00,71.1,65.0,30.00,ESE,105,0.0,-999.0,81,-99.99,,,0.00,0,weatherlink.com 1.10,2013-02-08 01:08:00,
2013-02-07 20:23:00,70.6,65.0,30.00,ESE,105,0.0,-999.0,82,-99.99,,,0.00,0,weatherlink.com 1.10,2013-02-08 01:23:00,
2013-02-07 20:38:00,70.1,65.0,30.00,ESE,105,0.0,-999.0,83,-99.99,,,0.00,0,weatherlink.com 1.10,2013-02-08 01:38:00,
2013-02-07 20:52:00,69.7,65.0,30.00,ESE,105,0.0,-999.0,84,-99.99,,,0.00,0,weatherlink.com 1.10,2013-02-08 01:52:00,
2013-02-07 21:08:00,69.6,65.0,30.01,ESE,105,0.0,-999.0,84,-99.99,,,0.00,0,weatherlink.com 1.10,2013-02-08 02:08:00,
2013-02-07 21:23:00,69.3,64.0,30.01,ESE,105,0.0,-999.0,84,-99.99,,,0.00,0,weatherlink.com 1.10,2013-02-08 02:23:00,
2013-02-07 21:38:00,69.0,64.0,30.01,ESE,105,0.0,-999.0,84,-99.99,,,0.00,0,weatherlink.com 1.10,2013-02-08 02:38:00,
2013-02-07 21:53:00,68.8,64.0,30.01,ESE,105,0.0,-999.0,84,-99.99,,,0.00,0,weatherlink.com 1.10,2013-02-08 02:53:00,
2013-02-07 22:08:00,68.7,64.0,30.00,ESE,105,0.0,-999.0,86,-99.99,,,0.00,0,weatherlink.com 1.10,2013-02-08 03:08:00,
2013-02-07 22:23:00,68.5,64.0,30.00,ESE,105,0.0,-999.0,86,-99.99,,,0.00,0,weatherlink.com 1.10,2013-02-08 03:23:00,
2013-02-07 22:38:00,68.3,64.0,29.99,ESE,105,0.0,-999.0,86,-99.99,,,0.00,0,weatherlink.com 1.10,2013-02-08 03:38:00,
2013-02-07 22:53:00,68.0,64.0,29.99,ESE,105,0.0,-999.0,87,-99.99,,,0.00,0,weatherlink.com 1.10,2013-02-08 03:53:00,
2013-02-07 23:08:00,68.0,64.0,29.99,ESE,105,0.0,-999.0,87,-99.99,,,0.00,0,weatherlink.com 1.10,2013-02-08 04:08:00,
2013-02-07 23:23:00,68.0,64.0,29.99,ESE,105,0.0,-999.0,88,-99.99,,,0.00,0,weatherlink.com 1.10,2013-02-08 04:23:00,
2013-02-07 23:38:00,67.8,64.0,29.98,ESE,105,0.0,-999.0,88,-99.99,,,0.00,0,weatherlink.com 1.10,2013-02-08 04:38:00,
2013-02-07 23:53:00,67.8,64.0,29.96,ESE,105,0.0,-999.0,88,-99.99,,,0.00,0,weatherlink.com 1.10,2013-02-08 04:53:00,